Moneta, Virginia
Current Conditions -  °F | °C
As of 8:54 AM on Monday 24 Nov 2014 (Local Time) from KROA Reporting Station
Broken Clouds Broken Clouds  
Wind Chill: 53°   Ceiling: 2900
Heat Index: 53°   Visibility: 10mi
Dew Point: 52°   Wind: 0mph
Humidity: 96%   Direction: NA
Pressure: 29.74"   Gusts: NA
Location:  37.18°N, 79.62°W
Report Text: KROA 241354Z 00000KT 10SM BKN029 12/11 A2974 RMK AO2 SLP070 T01170111
Loading
Personal Weather Stations






























Interactive Weather Map New forecast layout! Learn more

10-Day Weather Forecast

Advertisements
Track Severe Weather on mobile